createdAt,value
2019-01-16T00:02:31.241Z,4.91
2019-01-16T00:06:07.570Z,4.94
2019-01-16T00:09:46.984Z,4.82
2019-01-16T00:13:14.033Z,4.93
2019-01-16T00:16:32.152Z,4.91
2019-01-16T00:19:47.454Z,4.98
2019-01-16T00:23:10.524Z,4.86
2019-01-16T00:26:33.159Z,4.87
2019-01-16T00:29:57.805Z,4.92
2019-01-16T00:33:22.503Z,4.85
2019-01-16T00:36:45.568Z,4.97
2019-01-16T00:40:27.759Z,4.81
2019-01-16T00:43:50.697Z,4.83
2019-01-16T00:47:20.811Z,4.80
2019-01-16T00:50:57.315Z,4.78
2019-01-16T00:54:20.128Z,4.77
2019-01-16T00:57:52.138Z,4.82
2019-01-16T01:01:04.156Z,4.77
2019-01-16T01:04:40.583Z,4.71
2019-01-16T01:08:03.905Z,4.80
2019-01-16T01:11:30.948Z,4.85
2019-01-16T01:14:52.366Z,4.89
2019-01-16T01:18:16.496Z,4.92
2019-01-16T01:21:39.477Z,4.89
2019-01-16T01:25:02.294Z,4.95
2019-01-16T01:28:25.603Z,4.79
2019-01-16T01:31:58.692Z,4.83
2019-01-16T01:35:21.662Z,4.77
2019-01-16T01:38:45.925Z,4.86
2019-01-16T01:42:08.709Z,4.79
2019-01-16T01:45:42.576Z,4.79
2019-01-16T01:48:58.176Z,4.55
2019-01-16T01:52:25.635Z,4.75
2019-01-16T01:55:49.853Z,4.74
2019-01-16T01:59:11.482Z,4.74
2019-01-16T02:02:35.618Z,4.77
2019-01-16T02:06:03.960Z,4.75
2019-01-16T02:09:37.449Z,4.83
2019-01-16T02:13:01.239Z,4.87
2019-01-16T02:16:40.531Z,4.73
2019-01-16T02:20:04.603Z,4.73
2019-01-16T02:23:40.874Z,4.75
2019-01-16T02:27:05.897Z,4.75
2019-01-16T02:30:30.666Z,4.73
2019-01-16T02:33:53.407Z,4.85
2019-01-16T02:37:16.261Z,4.87
2019-01-16T02:40:44.092Z,4.84
2019-01-16T02:44:08.273Z,4.88
2019-01-16T02:47:44.880Z,4.72
2019-01-16T02:51:07.905Z,4.76
2019-01-16T02:54:35.024Z,4.67
2019-01-16T02:58:05.071Z,4.78
2019-01-16T03:01:20.028Z,4.67
2019-01-16T03:04:47.380Z,4.69
2019-01-16T03:07:59.142Z,4.68
2019-01-16T03:11:17.497Z,4.83
2019-01-16T03:14:40.544Z,4.68
2019-01-16T03:18:16.791Z,4.77
2019-01-16T03:21:49.944Z,4.71
2019-01-16T03:25:24.559Z,4.65
2019-01-16T03:28:54.463Z,4.58
2019-01-16T03:32:24.719Z,4.64
2019-01-16T03:35:51.601Z,4.64
2019-01-16T03:39:08.274Z,4.61
2019-01-16T03:42:32.380Z,4.56
2019-01-16T03:45:56.610Z,4.55
2019-01-16T03:49:39.256Z,4.61
2019-01-16T03:53:01.774Z,4.59
2019-01-16T03:56:25.850Z,4.67
2019-01-16T03:59:56.075Z,4.64
2019-01-16T04:03:23.394Z,4.59
2019-01-16T04:06:41.058Z,4.49
2019-01-16T04:10:03.477Z,4.55
2019-01-16T04:13:27.630Z,4.55
2019-01-16T04:16:54.972Z,4.47
2019-01-16T04:20:24.939Z,4.61
2019-01-16T04:23:47.684Z,4.70
2019-01-16T04:27:14.679Z,4.67
2019-01-16T04:30:41.577Z,4.65
2019-01-16T04:34:03.602Z,4.48
2019-01-16T04:37:43.054Z,4.36
2019-01-16T04:41:16.457Z,4.21
2019-01-16T04:44:41.104Z,4.27
2019-01-16T04:47:53.600Z,4.17
2019-01-16T04:51:10.096Z,4.12
2019-01-16T04:54:34.251Z,4.00
2019-01-16T04:58:05.967Z,3.74
2019-01-16T05:01:28.637Z,3.62
2019-01-16T05:05:04.729Z,3.47
2019-01-16T05:08:34.155Z,3.67
2019-01-16T05:12:10.650Z,3.63
2019-01-16T05:15:44.029Z,3.52
2019-01-16T05:19:23.432Z,3.75
2019-01-16T05:22:53.501Z,3.60
2019-01-16T05:26:06.526Z,3.55
2019-01-16T05:29:32.864Z,3.51
2019-01-16T05:32:54.186Z,3.56
2019-01-16T05:36:18.291Z,3.61
2019-01-16T05:39:41.286Z,3.59
2019-01-16T05:43:17.840Z,3.67
2019-01-16T05:46:57.978Z,3.83
2019-01-16T05:50:28.478Z,3.86
2019-01-16T05:54:01.492Z,3.81
2019-01-16T05:57:24.761Z,3.89
2019-01-16T06:01:07.123Z,3.81
2019-01-16T06:04:39.796Z,3.94
2019-01-16T06:08:10.340Z,3.89
2019-01-16T06:11:33.165Z,3.91
2019-01-16T06:15:04.521Z,3.97
2019-01-16T06:18:27.804Z,4.00
2019-01-16T06:22:03.284Z,4.23
2019-01-16T06:25:26.112Z,4.31
2019-01-16T06:28:51.030Z,4.24
2019-01-16T06:32:20.470Z,4.21
2019-01-16T06:36:02.854Z,4.29
2019-01-16T06:39:17.473Z,4.37
2019-01-16T06:42:40.822Z,4.48
2019-01-16T06:46:11.208Z,4.55
2019-01-16T06:49:40.320Z,4.40
2019-01-16T06:52:54.752Z,4.37
2019-01-16T06:56:18.919Z,4.34
2019-01-16T06:59:31.112Z,4.47
2019-01-16T07:03:10.442Z,4.36
2019-01-16T07:06:34.663Z,4.37
2019-01-16T07:10:01.612Z,4.44
2019-01-16T07:13:31.967Z,4.42
2019-01-16T07:17:14.461Z,4.33
2019-01-16T07:20:47.524Z,4.31
2019-01-16T07:24:14.715Z,4.40
2019-01-16T07:27:37.859Z,4.35
2019-01-16T07:31:17.365Z,4.35
2019-01-16T07:34:38.190Z,4.28
2019-01-16T07:38:18.263Z,4.47
2019-01-16T07:41:41.278Z,4.53
2019-01-16T07:45:05.419Z,4.47
2019-01-16T07:48:41.955Z,4.61
2019-01-16T07:51:59.699Z,4.48
2019-01-16T07:55:16.539Z,4.55
2019-01-16T07:58:49.733Z,4.59
2019-01-16T08:02:16.696Z,4.55
2019-01-16T08:05:39.594Z,4.64
2019-01-16T08:09:02.551Z,4.61
2019-01-16T08:12:26.074Z,4.74
2019-01-16T08:15:42.762Z,4.83
2019-01-16T08:19:06.947Z,4.82
2019-01-16T08:22:31.245Z,4.87
2019-01-16T08:25:45.447Z,4.85
2019-01-16T08:29:15.543Z,4.82
2019-01-16T08:32:54.854Z,4.89
2019-01-16T08:36:25.218Z,4.92
2019-01-16T08:39:49.473Z,4.78
2019-01-16T08:43:02.899Z,4.86
2019-01-16T08:46:27.238Z,4.92
2019-01-16T08:49:44.938Z,4.82
2019-01-16T08:53:25.445Z,4.84
2019-01-16T08:56:49.678Z,4.88
2019-01-16T09:00:13.884Z,5.00
2019-01-16T09:03:38.548Z,5.01
2019-01-16T09:06:56.404Z,5.04
2019-01-16T09:10:20.535Z,5.21
2019-01-16T09:13:50.759Z,5.05
2019-01-16T09:17:21.081Z,5.09
2019-01-16T09:20:55.265Z,5.20
2019-01-16T09:24:12.132Z,5.13
2019-01-16T09:27:42.075Z,5.25
2019-01-16T09:31:18.680Z,5.12
2019-01-16T09:34:45.008Z,5.13
2019-01-16T09:38:11.906Z,5.10
2019-01-16T09:41:39.227Z,5.03
2019-01-16T09:45:03.694Z,5.04
2019-01-16T09:48:27.308Z,5.06
2019-01-16T09:51:53.532Z,4.92
2019-01-16T09:55:20.564Z,4.87
2019-01-16T09:58:43.292Z,5.18
2019-01-16T10:02:07.257Z,5.05
2019-01-16T10:05:29.004Z,5.16
2019-01-16T10:08:54.657Z,5.10
2019-01-16T10:12:11.827Z,5.18
2019-01-16T10:15:39.913Z,5.25
2019-01-16T10:19:19.589Z,5.20
2019-01-16T10:22:58.877Z,5.22
2019-01-16T10:26:21.919Z,5.39
2019-01-16T10:29:42.235Z,5.51
2019-01-16T10:33:05.248Z,5.59
2019-01-16T10:36:38.830Z,5.71
2019-01-16T10:40:01.696Z,5.43
2019-01-16T10:43:32.121Z,5.38
2019-01-16T10:46:53.054Z,5.68
2019-01-16T10:50:29.423Z,5.48
2019-01-16T10:54:11.807Z,5.45
2019-01-16T10:57:34.526Z,5.95
2019-01-16T11:00:57.506Z,5.73
2019-01-16T11:04:27.852Z,6.01
2019-01-16T11:07:42.528Z,6.05
2019-01-16T11:11:21.847Z,6.39
2019-01-16T11:14:48.857Z,6.23
2019-01-16T11:18:11.851Z,6.02
2019-01-16T11:21:35.026Z,6.16
2019-01-16T11:25:02.201Z,6.15
2019-01-16T11:28:25.340Z,6.33
2019-01-16T11:32:08.002Z,6.47
2019-01-16T11:35:47.333Z,6.66
2019-01-16T11:39:11.683Z,6.53
2019-01-16T11:42:28.592Z,7.04
2019-01-16T11:46:10.725Z,7.03
2019-01-16T11:49:31.294Z,6.66
2019-01-16T11:53:12.215Z,6.63
2019-01-16T11:56:35.548Z,6.69
2019-01-16T11:59:50.177Z,6.47
2019-01-16T12:03:20.658Z,6.35
2019-01-16T12:06:47.664Z,6.31
2019-01-16T12:10:02.709Z,6.38
2019-01-16T12:13:25.790Z,6.33
2019-01-16T12:16:44.851Z,6.12
2019-01-16T12:20:12.036Z,6.15
2019-01-16T12:23:35.155Z,5.86
2019-01-16T12:27:02.467Z,5.98
2019-01-16T12:30:43.075Z,5.95
2019-01-16T12:33:58.686Z,6.11
2019-01-16T12:37:15.408Z,6.32
2019-01-16T12:40:45.652Z,6.21
2019-01-16T12:44:06.038Z,6.09
2019-01-16T12:47:29.106Z,6.34
2019-01-16T12:50:52.353Z,6.03
2019-01-16T12:54:22.556Z,6.10
2019-01-16T12:57:45.408Z,6.16
2019-01-16T13:01:24.667Z,6.21
2019-01-16T13:04:47.771Z,6.18
2019-01-16T13:08:14.977Z,6.35
2019-01-16T13:11:40.347Z,6.28
2019-01-16T13:14:59.178Z,6.30
2019-01-16T13:18:16.834Z,6.52
2019-01-16T13:21:46.912Z,6.32
2019-01-16T13:25:11.078Z,6.62
2019-01-16T13:28:35.063Z,6.72
2019-01-16T13:32:05.166Z,6.66
2019-01-16T13:35:35.297Z,6.60
2019-01-16T13:38:48.406Z,6.78
2019-01-16T13:42:18.585Z,6.29
2019-01-16T13:45:50.322Z,6.26
2019-01-16T13:49:27.000Z,6.36
2019-01-16T13:52:49.751Z,6.32
2019-01-16T13:56:13.858Z,6.50
2019-01-16T13:59:41.085Z,6.38
2019-01-16T14:03:11.540Z,6.35
2019-01-16T14:06:34.550Z,6.50
2019-01-16T14:09:57.274Z,6.31
2019-01-16T14:13:36.787Z,6.27
2019-01-16T14:17:10.382Z,6.15
2019-01-16T14:20:44.699Z,6.23
2019-01-16T14:24:18.635Z,6.12
2019-01-16T14:27:52.136Z,6.21
2019-01-16T14:31:11.016Z,6.19
2019-01-16T14:34:44.510Z,6.10
2019-01-16T14:38:07.744Z,6.07
2019-01-16T14:41:35.043Z,6.11
2019-01-16T14:45:02.392Z,5.95
2019-01-16T14:48:19.308Z,5.78
2019-01-16T14:51:42.197Z,5.66
2019-01-16T14:55:15.735Z,5.57
2019-01-16T14:58:48.893Z,5.49
2019-01-16T15:02:12.075Z,5.30
2019-01-16T15:05:43.174Z,5.17
2019-01-16T15:09:07.328Z,4.96
2019-01-16T15:12:41.484Z,4.90
2019-01-16T15:16:04.530Z,4.80
2019-01-16T15:19:27.381Z,4.70
2019-01-16T15:22:54.281Z,4.51
2019-01-16T15:26:21.511Z,4.49
2019-01-16T15:30:04.236Z,4.40
2019-01-16T15:33:43.675Z,4.23
2019-01-16T15:37:08.655Z,4.00
2019-01-16T15:40:33.384Z,3.71
2019-01-16T15:43:56.370Z,3.43
2019-01-16T15:47:21.638Z,3.23
2019-01-16T15:50:48.068Z,3.23
2019-01-16T15:54:04.983Z,3.07
2019-01-16T15:57:28.991Z,2.91
2019-01-16T16:00:42.158Z,3.06
2019-01-16T16:04:04.570Z,2.75
2019-01-16T16:07:37.235Z,2.54
2019-01-16T16:11:10.519Z,2.51
2019-01-16T16:14:35.659Z,2.38
2019-01-16T16:17:58.651Z,2.27
2019-01-16T16:21:21.470Z,1.98
2019-01-16T16:24:48.648Z,1.86
2019-01-16T16:28:11.673Z,1.75
2019-01-16T16:31:54.236Z,1.64
2019-01-16T16:35:31.007Z,1.50
2019-01-16T16:38:55.214Z,1.49
2019-01-16T16:42:31.820Z,1.52
2019-01-16T16:45:54.488Z,1.46
2019-01-16T16:49:06.398Z,1.41
2019-01-16T16:52:29.227Z,1.28
2019-01-16T16:55:47.934Z,1.27
2019-01-16T16:59:07.735Z,1.27
2019-01-16T17:02:31.969Z,1.23
2019-01-16T17:05:55.100Z,1.33
2019-01-16T17:09:25.121Z,1.32
2019-01-16T17:12:58.352Z,1.41
2019-01-16T17:16:41.028Z,1.37
2019-01-16T17:20:05.015Z,1.17
2019-01-16T17:23:38.458Z,1.30
2019-01-16T17:26:52.220Z,1.40
2019-01-16T17:30:05.970Z,1.46
2019-01-16T17:33:33.172Z,1.40
2019-01-16T17:37:03.433Z,1.37
2019-01-16T17:40:30.874Z,1.25
2019-01-16T17:43:53.721Z,1.09
2019-01-16T17:47:16.549Z,1.07
2019-01-16T17:50:49.868Z,1.06
2019-01-16T17:54:17.942Z,0.90
2019-01-16T17:57:52.038Z,0.77
2019-01-16T18:01:04.187Z,0.75
2019-01-16T18:04:26.012Z,0.74
2019-01-16T18:07:45.757Z,0.61
2019-01-16T18:11:09.860Z,0.57
2019-01-16T18:14:43.237Z,0.54
2019-01-16T18:18:06.052Z,0.47
2019-01-16T18:21:22.366Z,0.61
2019-01-16T18:24:52.444Z,0.68
2019-01-16T18:28:11.879Z,0.48
2019-01-16T18:31:41.738Z,0.37
2019-01-16T18:35:02.750Z,0.50
2019-01-16T18:38:29.604Z,0.40
2019-01-16T18:42:06.337Z,0.38
2019-01-16T18:45:42.559Z,0.39
2019-01-16T18:49:06.680Z,0.39
2019-01-16T18:52:29.336Z,0.36
2019-01-16T18:55:50.530Z,0.38
2019-01-16T18:59:13.329Z,0.31
2019-01-16T19:02:37.463Z,0.34
2019-01-16T19:06:02.781Z,0.51
2019-01-16T19:09:28.402Z,0.44
2019-01-16T19:12:52.568Z,0.37
2019-01-16T19:16:20.522Z,0.31
2019-01-16T19:19:43.650Z,0.34
2019-01-16T19:23:06.420Z,0.24
2019-01-16T19:26:30.618Z,0.15
2019-01-16T19:29:53.301Z,0.14
2019-01-16T19:33:17.468Z,0.10
2019-01-16T19:36:40.574Z,0.16
2019-01-16T19:40:04.706Z,0.19
2019-01-16T19:43:37.976Z,0.19
2019-01-16T19:46:56.534Z,0.06
2019-01-16T19:50:34.106Z,0.04
2019-01-16T19:54:16.484Z,-0.06
2019-01-16T19:57:31.429Z,0.01
2019-01-16T20:01:04.466Z,-0.11
2019-01-16T20:04:26.793Z,-0.19
2019-01-16T20:07:53.814Z,-0.21
2019-01-16T20:11:24.133Z,-0.19
2019-01-16T20:14:37.999Z,-0.26
2019-01-16T20:18:04.003Z,-0.29
2019-01-16T20:21:26.994Z,-0.36
2019-01-16T20:24:49.726Z,-0.36
2019-01-16T20:28:12.718Z,-0.34
2019-01-16T20:31:28.473Z,-0.32
2019-01-16T20:34:50.059Z,-0.43
2019-01-16T20:38:32.486Z,-0.49
2019-01-16T20:41:55.596Z,-0.46
2019-01-16T20:45:17.399Z,-0.24
2019-01-16T20:48:46.652Z,-0.41
2019-01-16T20:52:20.011Z,-0.30
2019-01-16T20:55:37.543Z,-0.36
2019-01-16T20:59:06.341Z,-0.33
2019-01-16T21:02:45.884Z,-0.43
2019-01-16T21:06:13.043Z,-0.40
2019-01-16T21:09:37.223Z,-0.47
2019-01-16T21:13:01.273Z,-0.31
2019-01-16T21:16:34.392Z,-0.38
2019-01-16T21:19:57.494Z,-0.39
2019-01-16T21:23:15.372Z,-0.50
2019-01-16T21:26:42.473Z,-0.49
2019-01-16T21:30:09.731Z,-0.55
2019-01-16T21:33:45.734Z,-0.58
2019-01-16T21:37:09.061Z,-0.57
2019-01-16T21:40:32.433Z,-0.57
2019-01-16T21:44:14.784Z,-0.47
2019-01-16T21:47:36.566Z,-0.52
2019-01-16T21:51:07.074Z,-0.53
2019-01-16T21:54:29.806Z,-0.54
2019-01-16T21:57:49.054Z,-0.39
2019-01-16T22:01:07.598Z,-0.45
2019-01-16T22:04:30.569Z,-0.45
2019-01-16T22:08:13.306Z,-0.57
2019-01-16T22:11:35.630Z,-0.50
2019-01-16T22:15:18.019Z,-0.47
2019-01-16T22:18:45.183Z,-0.39
2019-01-16T22:22:15.154Z,-0.27
2019-01-16T22:25:39.224Z,-0.14
2019-01-16T22:29:12.300Z,-0.15
2019-01-16T22:32:32.039Z,-0.19
2019-01-16T22:36:02.716Z,-0.11
2019-01-16T22:39:36.481Z,0.18
2019-01-16T22:42:52.422Z,0.35
2019-01-16T22:46:16.504Z,0.40
2019-01-16T22:49:49.476Z,0.56
2019-01-16T22:53:15.209Z,1.53
2019-01-16T22:56:51.273Z,2.31
2019-01-16T23:00:14.631Z,3.34
2019-01-16T23:03:49.529Z,4.07
2019-01-16T23:07:08.980Z,4.39
2019-01-16T23:10:36.003Z,4.76
2019-01-16T23:14:00.043Z,4.89
2019-01-16T23:17:24.238Z,4.98
2019-01-16T23:21:00.457Z,5.20
2019-01-16T23:24:17.122Z,5.36
2019-01-16T23:27:55.879Z,5.57
2019-01-16T23:31:09.107Z,5.42
2019-01-16T23:34:45.494Z,5.33
2019-01-16T23:38:27.706Z,5.54
2019-01-16T23:41:58.068Z,5.41
2019-01-16T23:45:34.301Z,5.53
2019-01-16T23:49:10.388Z,5.52
2019-01-16T23:52:40.764Z,5.81
2019-01-16T23:56:07.900Z,5.90
2019-01-16T23:59:50.156Z,5.87
